sensor_id;sensor_type;location;lat;lon;timestamp;temperature;humidity
10411;DHT22;5251;52.112;8.606;2023-05-10T00:02:24;18.60;96.80
10411;DHT22;5251;52.112;8.606;2023-05-10T00:04:50;18.60;97.20
10411;DHT22;5251;52.112;8.606;2023-05-10T00:07:15;18.50;96.90
10411;DHT22;5251;52.112;8.606;2023-05-10T00:09:43;18.60;97.10
10411;DHT22;5251;52.112;8.606;2023-05-10T00:12:08;18.50;97.00
10411;DHT22;5251;52.112;8.606;2023-05-10T00:14:34;18.50;97.10
10411;DHT22;5251;52.112;8.606;2023-05-10T00:17:00;18.50;97.10
10411;DHT22;5251;52.112;8.606;2023-05-10T00:19:25;18.50;97.10
10411;DHT22;5251;52.112;8.606;2023-05-10T00:21:51;18.50;97.10
10411;DHT22;5251;52.112;8.606;2023-05-10T00:24:16;18.50;97.10
10411;DHT22;5251;52.112;8.606;2023-05-10T00:26:42;18.50;97.10
10411;DHT22;5251;52.112;8.606;2023-05-10T00:29:08;18.50;97.30
10411;DHT22;5251;52.112;8.606;2023-05-10T00:31:33;18.40;97.30
10411;DHT22;5251;52.112;8.606;2023-05-10T00:33:59;18.50;97.40
10411;DHT22;5251;52.112;8.606;2023-05-10T00:36:24;18.40;97.30
10411;DHT22;5251;52.112;8.606;2023-05-10T00:38:50;18.40;97.40
10411;DHT22;5251;52.112;8.606;2023-05-10T00:41:15;18.40;97.50
10411;DHT22;5251;52.112;8.606;2023-05-10T00:43:41;18.40;97.20
10411;DHT22;5251;52.112;8.606;2023-05-10T00:46:07;18.40;97.50
10411;DHT22;5251;52.112;8.606;2023-05-10T00:48:33;18.30;97.60
10411;DHT22;5251;52.112;8.606;2023-05-10T00:51:00;18.30;97.60
10411;DHT22;5251;52.112;8.606;2023-05-10T00:53:26;18.30;97.70
10411;DHT22;5251;52.112;8.606;2023-05-10T00:55:52;18.30;97.70
10411;DHT22;5251;52.112;8.606;2023-05-10T00:58:18;18.30;97.70
10411;DHT22;5251;52.112;8.606;2023-05-10T01:00:46;18.30;97.80
10411;DHT22;5251;52.112;8.606;2023-05-10T01:03:13;18.30;97.80
10411;DHT22;5251;52.112;8.606;2023-05-10T01:05:39;18.30;97.90
10411;DHT22;5251;52.112;8.606;2023-05-10T01:08:06;18.30;97.90
10411;DHT22;5251;52.112;8.606;2023-05-10T01:10:33;18.30;97.90
10411;DHT22;5251;52.112;8.606;2023-05-10T01:13:00;18.30;97.90
10411;DHT22;5251;52.112;8.606;2023-05-10T01:15:26;18.20;97.90
10411;DHT22;5251;52.112;8.606;2023-05-10T01:17:52;18.20;98.00
10411;DHT22;5251;52.112;8.606;2023-05-10T01:20:18;18.30;98.10
10411;DHT22;5251;52.112;8.606;2023-05-10T01:32:02;18.20;98.20
10411;DHT22;5251;52.112;8.606;2023-05-10T01:34:09;18.20;98.30
10411;DHT22;5251;52.112;8.606;2023-05-10T01:36:48;18.20;98.30
10411;DHT22;5251;52.112;8.606;2023-05-10T01:45:02;18.20;98.40
10411;DHT22;5251;52.112;8.606;2023-05-10T01:47:53;18.20;98.40
10411;DHT22;5251;52.112;8.606;2023-05-10T01:50:26;18.20;98.60
10411;DHT22;5251;52.112;8.606;2023-05-10T01:52:55;18.20;98.70
10411;DHT22;5251;52.112;8.606;2023-05-10T01:55:25;18.20;98.70
10411;DHT22;5251;52.112;8.606;2023-05-10T01:58:06;18.20;98.80
10411;DHT22;5251;52.112;8.606;2023-05-10T02:00:34;18.20;98.80
10411;DHT22;5251;52.112;8.606;2023-05-10T02:03:02;18.20;98.80
10411;DHT22;5251;52.112;8.606;2023-05-10T02:05:30;18.20;98.90
10411;DHT22;5251;52.112;8.606;2023-05-10T02:07:58;18.20;98.90
10411;DHT22;5251;52.112;8.606;2023-05-10T02:10:24;18.30;98.90
10411;DHT22;5251;52.112;8.606;2023-05-10T02:12:50;18.20;98.90
10411;DHT22;5251;52.112;8.606;2023-05-10T02:15:19;18.20;99.00
10411;DHT22;5251;52.112;8.606;2023-05-10T02:17:46;18.20;98.80
10411;DHT22;5251;52.112;8.606;2023-05-10T02:20:12;18.30;98.80
10411;DHT22;5251;52.112;8.606;2023-05-10T02:22:40;18.20;98.80
10411;DHT22;5251;52.112;8.606;2023-05-10T02:25:08;18.20;98.70
10411;DHT22;5251;52.112;8.606;2023-05-10T02:27:34;18.20;98.70
10411;DHT22;5251;52.112;8.606;2023-05-10T02:30:02;18.20;98.80
10411;DHT22;5251;52.112;8.606;2023-05-10T02:32:29;18.10;98.70
10411;DHT22;5251;52.112;8.606;2023-05-10T02:34:55;18.10;98.80
10411;DHT22;5251;52.112;8.606;2023-05-10T02:37:22;18.10;98.80
10411;DHT22;5251;52.112;8.606;2023-05-10T02:39:49;18.10;98.90
10411;DHT22;5251;52.112;8.606;2023-05-10T02:42:19;18.00;98.90
10411;DHT22;5251;52.112;8.606;2023-05-10T02:44:48;18.00;98.90
10411;DHT22;5251;52.112;8.606;2023-05-10T02:47:16;18.00;99.00
10411;DHT22;5251;52.112;8.606;2023-05-10T02:49:42;17.90;99.00
10411;DHT22;5251;52.112;8.606;2023-05-10T02:52:08;17.90;99.10
10411;DHT22;5251;52.112;8.606;2023-05-10T02:54:41;17.90;99.20
10411;DHT22;5251;52.112;8.606;2023-05-10T02:57:12;17.90;99.30
10411;DHT22;5251;52.112;8.606;2023-05-10T02:59:40;17.90;99.20
10411;DHT22;5251;52.112;8.606;2023-05-10T03:02:08;17.80;99.20
10411;DHT22;5251;52.112;8.606;2023-05-10T03:04:34;17.80;99.20
10411;DHT22;5251;52.112;8.606;2023-05-10T03:06:59;17.80;99.20
10411;DHT22;5251;52.112;8.606;2023-05-10T03:09:25;17.80;99.20
10411;DHT22;5251;52.112;8.606;2023-05-10T03:15:20;17.80;99.30
10411;DHT22;5251;52.112;8.606;2023-05-10T03:18:14;17.80;99.20
10411;DHT22;5251;52.112;8.606;2023-05-10T03:20:51;17.80;99.20
10411;DHT22;5251;52.112;8.606;2023-05-10T03:23:21;17.80;99.30
10411;DHT22;5251;52.112;8.606;2023-05-10T03:25:48;17.70;99.30
10411;DHT22;5251;52.112;8.606;2023-05-10T03:28:16;17.70;99.30
10411;DHT22;5251;52.112;8.606;2023-05-10T03:30:43;17.70;99.30
10411;DHT22;5251;52.112;8.606;2023-05-10T03:33:08;17.70;99.40
10411;DHT22;5251;52.112;8.606;2023-05-10T03:35:34;17.60;99.50
10411;DHT22;5251;52.112;8.606;2023-05-10T03:38:00;17.60;99.40
10411;DHT22;5251;52.112;8.606;2023-05-10T03:40:26;17.60;99.40
10411;DHT22;5251;52.112;8.606;2023-05-10T03:42:54;17.60;99.40
10411;DHT22;5251;52.112;8.606;2023-05-10T03:45:20;17.60;99.40
10411;DHT22;5251;52.112;8.606;2023-05-10T03:47:45;17.60;99.40
10411;DHT22;5251;52.112;8.606;2023-05-10T03:50:11;17.60;99.50
10411;DHT22;5251;52.112;8.606;2023-05-10T03:52:37;17.60;99.50
10411;DHT22;5251;52.112;8.606;2023-05-10T03:55:05;17.60;99.60
10411;DHT22;5251;52.112;8.606;2023-05-10T03:57:30;17.60;99.70
10411;DHT22;5251;52.112;8.606;2023-05-10T03:59:56;17.50;99.70
10411;DHT22;5251;52.112;8.606;2023-05-10T04:02:22;17.50;99.80
10411;DHT22;5251;52.112;8.606;2023-05-10T04:04:47;17.50;99.90
10411;DHT22;5251;52.112;8.606;2023-05-10T04:07:13;17.60;99.90
10411;DHT22;5251;52.112;8.606;2023-05-10T04:09:39;17.60;99.90
10411;DHT22;5251;52.112;8.606;2023-05-10T04:12:05;17.60;99.90
10411;DHT22;5251;52.112;8.606;2023-05-10T04:14:31;17.60;99.90
10411;DHT22;5251;52.112;8.606;2023-05-10T04:16:56;17.60;99.90
10411;DHT22;5251;52.112;8.606;2023-05-10T04:19:22;17.60;99.90
10411;DHT22;5251;52.112;8.606;2023-05-10T04:21:48;17.60;99.90
10411;DHT22;5251;52.112;8.606;2023-05-10T04:24:13;17.60;99.90
10411;DHT22;5251;52.112;8.606;2023-05-10T04:26:39;17.60;99.90
10411;DHT22;5251;52.112;8.606;2023-05-10T04:29:04;17.60;99.90
10411;DHT22;5251;52.112;8.606;2023-05-10T04:31:30;17.60;99.90
10411;DHT22;5251;52.112;8.606;2023-05-10T04:33:56;17.60;99.90
10411;DHT22;5251;52.112;8.606;2023-05-10T04:36:21;17.60;99.90
10411;DHT22;5251;52.112;8.606;2023-05-10T04:38:47;17.60;99.90
10411;DHT22;5251;52.112;8.606;2023-05-10T04:41:12;17.60;99.90
10411;DHT22;5251;52.112;8.606;2023-05-10T04:43:38;17.50;99.70
10411;DHT22;5251;52.112;8.606;2023-05-10T04:46:04;17.50;99.90
10411;DHT22;5251;52.112;8.606;2023-05-10T04:48:30;17.40;99.60
10411;DHT22;5251;52.112;8.606;2023-05-10T04:50:56;17.40;99.70
10411;DHT22;5251;52.112;8.606;2023-05-10T04:53:21;17.40;99.80
10411;DHT22;5251;52.112;8.606;2023-05-10T04:55:47;17.30;99.70
10411;DHT22;5251;52.112;8.606;2023-05-10T04:58:13;17.30;99.90
10411;DHT22;5251;52.112;8.606;2023-05-10T05:00:39;17.20;99.60
10411;DHT22;5251;52.112;8.606;2023-05-10T05:03:04;17.20;99.80
10411;DHT22;5251;52.112;8.606;2023-05-10T05:05:30;17.20;99.90
10411;DHT22;5251;52.112;8.606;2023-05-10T05:07:56;17.10;99.90
10411;DHT22;5251;52.112;8.606;2023-05-10T05:10:22;17.10;99.90
10411;DHT22;5251;52.112;8.606;2023-05-10T05:12:47;17.10;99.90
10411;DHT22;5251;52.112;8.606;2023-05-10T05:15:13;17.10;99.90
10411;DHT22;5251;52.112;8.606;2023-05-10T05:17:38;17.10;99.90
10411;DHT22;5251;52.112;8.606;2023-05-10T05:20:04;17.00;99.90
10411;DHT22;5251;52.112;8.606;2023-05-10T05:22:30;17.00;99.90
10411;DHT22;5251;52.112;8.606;2023-05-10T05:24:56;17.00;99.90
10411;DHT22;5251;52.112;8.606;2023-05-10T05:27:23;17.00;99.90
10411;DHT22;5251;52.112;8.606;2023-05-10T05:29:52;17.00;99.90
10411;DHT22;5251;52.112;8.606;2023-05-10T05:32:18;17.10;99.90
10411;DHT22;5251;52.112;8.606;2023-05-10T05:34:45;17.10;99.90
10411;DHT22;5251;52.112;8.606;2023-05-10T05:37:15;17.10;99.90
10411;DHT22;5251;52.112;8.606;2023-05-10T05:39:41;17.10;99.90
10411;DHT22;5251;52.112;8.606;2023-05-10T05:42:08;17.20;99.90
10411;DHT22;5251;52.112;8.606;2023-05-10T05:44:34;17.20;99.90
10411;DHT22;5251;52.112;8.606;2023-05-10T05:46:59;17.20;99.90
10411;DHT22;5251;52.112;8.606;2023-05-10T05:49:25;17.20;99.90
10411;DHT22;5251;52.112;8.606;2023-05-10T05:51:50;17.30;99.90
10411;DHT22;5251;52.112;8.606;2023-05-10T05:54:16;17.30;99.90
10411;DHT22;5251;52.112;8.606;2023-05-10T05:56:42;17.30;99.90
10411;DHT22;5251;52.112;8.606;2023-05-10T05:59:07;17.40;99.90
10411;DHT22;5251;52.112;8.606;2023-05-10T06:01:33;17.40;99.90
10411;DHT22;5251;52.112;8.606;2023-05-10T06:03:59;17.40;99.90
10411;DHT22;5251;52.112;8.606;2023-05-10T06:06:24;17.50;99.90
10411;DHT22;5251;52.112;8.606;2023-05-10T06:08:50;17.60;99.90
10411;DHT22;5251;52.112;8.606;2023-05-10T06:11:15;17.60;99.90
10411;DHT22;5251;52.112;8.606;2023-05-10T06:13:41;17.70;99.70
10411;DHT22;5251;52.112;8.606;2023-05-10T06:16:07;17.70;99.70
10411;DHT22;5251;52.112;8.606;2023-05-10T06:18:33;17.70;99.80
10411;DHT22;5251;52.112;8.606;2023-05-10T06:21:00;17.80;99.70
10411;DHT22;5251;52.112;8.606;2023-05-10T06:23:25;17.80;99.50
10411;DHT22;5251;52.112;8.606;2023-05-10T06:25:52;17.80;99.30
10411;DHT22;5251;52.112;8.606;2023-05-10T06:28:17;17.90;99.50
10411;DHT22;5251;52.112;8.606;2023-05-10T06:30:43;17.90;99.30
10411;DHT22;5251;52.112;8.606;2023-05-10T06:33:09;17.90;99.40
10411;DHT22;5251;52.112;8.606;2023-05-10T06:35:35;18.00;99.40
10411;DHT22;5251;52.112;8.606;2023-05-10T06:38:02;18.00;99.50
10411;DHT22;5251;52.112;8.606;2023-05-10T06:40:27;18.10;99.50
10411;DHT22;5251;52.112;8.606;2023-05-10T06:42:53;18.10;99.50
10411;DHT22;5251;52.112;8.606;2023-05-10T06:45:18;18.20;99.40
10411;DHT22;5251;52.112;8.606;2023-05-10T06:47:44;18.20;99.20
10411;DHT22;5251;52.112;8.606;2023-05-10T06:50:10;18.40;99.30
10411;DHT22;5251;52.112;8.606;2023-05-10T06:52:39;18.40;99.00
10411;DHT22;5251;52.112;8.606;2023-05-10T06:55:05;18.50;98.90
10411;DHT22;5251;52.112;8.606;2023-05-10T06:57:31;18.50;98.40
10411;DHT22;5251;52.112;8.606;2023-05-10T06:59:58;18.60;98.50
10411;DHT22;5251;52.112;8.606;2023-05-10T07:02:23;18.60;98.40
10411;DHT22;5251;52.112;8.606;2023-05-10T07:04:49;18.60;98.30
10411;DHT22;5251;52.112;8.606;2023-05-10T07:07:17;18.70;98.40
10411;DHT22;5251;52.112;8.606;2023-05-10T07:09:42;18.70;98.10
10411;DHT22;5251;52.112;8.606;2023-05-10T07:12:08;18.80;98.10
10411;DHT22;5251;52.112;8.606;2023-05-10T07:14:33;18.80;98.00
10411;DHT22;5251;52.112;8.606;2023-05-10T07:16:59;18.90;98.10
10411;DHT22;5251;52.112;8.606;2023-05-10T07:19:24;19.00;98.60
10411;DHT22;5251;52.112;8.606;2023-05-10T07:21:50;19.00;98.30
10411;DHT22;5251;52.112;8.606;2023-05-10T07:24:16;19.10;98.10
10411;DHT22;5251;52.112;8.606;2023-05-10T07:26:41;19.20;98.00
10411;DHT22;5251;52.112;8.606;2023-05-10T07:29:07;19.30;97.90
10411;DHT22;5251;52.112;8.606;2023-05-10T07:31:34;19.40;97.60
10411;DHT22;5251;52.112;8.606;2023-05-10T07:33:59;19.50;97.20
10411;DHT22;5251;52.112;8.606;2023-05-10T07:36:25;19.60;97.20
10411;DHT22;5251;52.112;8.606;2023-05-10T07:38:50;19.60;97.30
10411;DHT22;5251;52.112;8.606;2023-05-10T07:41:16;19.70;97.40
10411;DHT22;5251;52.112;8.606;2023-05-10T07:43:41;19.90;96.90
10411;DHT22;5251;52.112;8.606;2023-05-10T07:46:07;19.90;96.60
10411;DHT22;5251;52.112;8.606;2023-05-10T07:48:36;20.00;96.60
10411;DHT22;5251;52.112;8.606;2023-05-10T07:51:02;20.10;96.50
10411;DHT22;5251;52.112;8.606;2023-05-10T07:55:57;20.30;96.30
10411;DHT22;5251;52.112;8.606;2023-05-10T07:58:24;20.40;96.30
10411;DHT22;5251;52.112;8.606;2023-05-10T08:00:50;20.50;96.10
10411;DHT22;5251;52.112;8.606;2023-05-10T08:03:15;20.70;96.00
10411;DHT22;5251;52.112;8.606;2023-05-10T08:05:41;20.80;95.70
10411;DHT22;5251;52.112;8.606;2023-05-10T08:08:07;20.90;95.70
10411;DHT22;5251;52.112;8.606;2023-05-10T08:10:33;20.90;95.50
10411;DHT22;5251;52.112;8.606;2023-05-10T08:12:58;21.00;95.10
10411;DHT22;5251;52.112;8.606;2023-05-10T08:15:24;21.10;94.80
10411;DHT22;5251;52.112;8.606;2023-05-10T08:17:51;21.10;94.80
10411;DHT22;5251;52.112;8.606;2023-05-10T08:20:17;21.20;94.60
10411;DHT22;5251;52.112;8.606;2023-05-10T08:22:45;21.20;94.20
10411;DHT22;5251;52.112;8.606;2023-05-10T08:25:10;21.20;94.20
10411;DHT22;5251;52.112;8.606;2023-05-10T08:27:36;21.20;94.20
10411;DHT22;5251;52.112;8.606;2023-05-10T08:30:02;21.20;94.60
10411;DHT22;5251;52.112;8.606;2023-05-10T08:32:27;21.20;94.60
10411;DHT22;5251;52.112;8.606;2023-05-10T08:34:53;21.20;94.80
10411;DHT22;5251;52.112;8.606;2023-05-10T08:37:18;21.20;95.10
10411;DHT22;5251;52.112;8.606;2023-05-10T08:39:44;21.30;94.80
10411;DHT22;5251;52.112;8.606;2023-05-10T08:42:16;21.40;94.70
10411;DHT22;5251;52.112;8.606;2023-05-10T08:44:45;21.40;95.00
10411;DHT22;5251;52.112;8.606;2023-05-10T08:47:12;21.50;94.90
10411;DHT22;5251;52.112;8.606;2023-05-10T08:49:41;21.60;95.00
10411;DHT22;5251;52.112;8.606;2023-05-10T08:52:07;21.70;94.80
10411;DHT22;5251;52.112;8.606;2023-05-10T08:54:33;21.90;94.50
10411;DHT22;5251;52.112;8.606;2023-05-10T08:56:59;22.00;94.40
10411;DHT22;5251;52.112;8.606;2023-05-10T08:59:25;22.20;94.30
10411;DHT22;5251;52.112;8.606;2023-05-10T09:01:51;22.30;93.30
10411;DHT22;5251;52.112;8.606;2023-05-10T09:04:19;22.40;93.10
10411;DHT22;5251;52.112;8.606;2023-05-10T09:06:45;22.40;92.90
10411;DHT22;5251;52.112;8.606;2023-05-10T09:09:11;22.40;92.50
10411;DHT22;5251;52.112;8.606;2023-05-10T09:11:37;22.30;92.50
10411;DHT22;5251;52.112;8.606;2023-05-10T09:14:02;22.30;92.40
10411;DHT22;5251;52.112;8.606;2023-05-10T09:16:28;22.30;92.40
10411;DHT22;5251;52.112;8.606;2023-05-10T09:18:54;22.20;92.40
10411;DHT22;5251;52.112;8.606;2023-05-10T09:21:19;22.20;92.40
10411;DHT22;5251;52.112;8.606;2023-05-10T09:23:46;22.10;93.00
10411;DHT22;5251;52.112;8.606;2023-05-10T09:26:12;22.10;92.60
10411;DHT22;5251;52.112;8.606;2023-05-10T09:28:58;22.00;92.60
10411;DHT22;5251;52.112;8.606;2023-05-10T09:31:25;22.00;93.00
10411;DHT22;5251;52.112;8.606;2023-05-10T09:34:08;22.00;93.00
10411;DHT22;5251;52.112;8.606;2023-05-10T09:36:33;21.90;93.30
10411;DHT22;5251;52.112;8.606;2023-05-10T09:38:59;21.90;93.00
10411;DHT22;5251;52.112;8.606;2023-05-10T09:41:25;21.90;92.90
10411;DHT22;5251;52.112;8.606;2023-05-10T09:43:55;21.80;93.00
10411;DHT22;5251;52.112;8.606;2023-05-10T09:46:22;21.80;93.00
10411;DHT22;5251;52.112;8.606;2023-05-10T09:48:51;21.80;93.50
10411;DHT22;5251;52.112;8.606;2023-05-10T09:51:23;21.90;93.80
10411;DHT22;5251;52.112;8.606;2023-05-10T09:54:12;22.00;94.30
10411;DHT22;5251;52.112;8.606;2023-05-10T09:56:38;22.10;93.90
10411;DHT22;5251;52.112;8.606;2023-05-10T09:59:06;22.20;93.80
10411;DHT22;5251;52.112;8.606;2023-05-10T10:01:33;22.30;94.40
10411;DHT22;5251;52.112;8.606;2023-05-10T10:03:58;22.50;94.40
10411;DHT22;5251;52.112;8.606;2023-05-10T10:06:25;22.60;94.70
10411;DHT22;5251;52.112;8.606;2023-05-10T10:08:51;22.70;94.80
10411;DHT22;5251;52.112;8.606;2023-05-10T10:11:17;22.90;94.90
10411;DHT22;5251;52.112;8.606;2023-05-10T10:13:43;23.10;94.80
10411;DHT22;5251;52.112;8.606;2023-05-10T10:16:09;23.20;94.20
10411;DHT22;5251;52.112;8.606;2023-05-10T10:18:36;23.40;94.30
10411;DHT22;5251;52.112;8.606;2023-05-10T10:21:06;23.50;93.80
10411;DHT22;5251;52.112;8.606;2023-05-10T10:23:32;23.60;93.50
10411;DHT22;5251;52.112;8.606;2023-05-10T10:25:58;23.70;92.50
10411;DHT22;5251;52.112;8.606;2023-05-10T10:31:12;23.70;91.40
10411;DHT22;5251;52.112;8.606;2023-05-10T10:34:01;23.70;91.70
10411;DHT22;5251;52.112;8.606;2023-05-10T10:36:29;23.80;92.30
10411;DHT22;5251;52.112;8.606;2023-05-10T10:38:59;23.90;92.10
10411;DHT22;5251;52.112;8.606;2023-05-10T10:41:33;24.00;91.60
10411;DHT22;5251;52.112;8.606;2023-05-10T10:54:58;24.30;89.60
10411;DHT22;5251;52.112;8.606;2023-05-10T10:57:25;24.40;88.40
10411;DHT22;5251;52.112;8.606;2023-05-10T11:02:44;24.40;88.80
10411;DHT22;5251;52.112;8.606;2023-05-10T11:07:53;24.50;88.60
10411;DHT22;5251;52.112;8.606;2023-05-10T11:10:20;24.60;88.80
10411;DHT22;5251;52.112;8.606;2023-05-10T11:13:03;24.60;87.80
10411;DHT22;5251;52.112;8.606;2023-05-10T11:15:48;24.60;85.40
10411;DHT22;5251;52.112;8.606;2023-05-10T11:18:18;24.60;86.60
10411;DHT22;5251;52.112;8.606;2023-05-10T11:20:50;24.60;83.30
10411;DHT22;5251;52.112;8.606;2023-05-10T11:23:16;24.60;85.90
10411;DHT22;5251;52.112;8.606;2023-05-10T11:25:44;24.60;85.50
10411;DHT22;5251;52.112;8.606;2023-05-10T11:28:10;24.60;83.50
10411;DHT22;5251;52.112;8.606;2023-05-10T11:30:37;24.50;85.20
10411;DHT22;5251;52.112;8.606;2023-05-10T11:33:03;24.40;83.80
10411;DHT22;5251;52.112;8.606;2023-05-10T11:35:29;24.40;83.70
10411;DHT22;5251;52.112;8.606;2023-05-10T11:37:54;24.30;83.90
10411;DHT22;5251;52.112;8.606;2023-05-10T11:40:23;24.20;83.70
10411;DHT22;5251;52.112;8.606;2023-05-10T11:42:51;24.10;84.90
10411;DHT22;5251;52.112;8.606;2023-05-10T11:45:17;24.00;79.80
10411;DHT22;5251;52.112;8.606;2023-05-10T11:47:43;24.00;85.80
10411;DHT22;5251;52.112;8.606;2023-05-10T11:50:10;23.90;82.50
10411;DHT22;5251;52.112;8.606;2023-05-10T11:52:36;24.00;86.70
10411;DHT22;5251;52.112;8.606;2023-05-10T11:55:05;24.00;87.70
10411;DHT22;5251;52.112;8.606;2023-05-10T11:57:31;24.10;86.50
10411;DHT22;5251;52.112;8.606;2023-05-10T11:59:57;24.20;86.20
10411;DHT22;5251;52.112;8.606;2023-05-10T12:02:23;24.30;86.60
10411;DHT22;5251;52.112;8.606;2023-05-10T12:04:50;24.40;84.40
10411;DHT22;5251;52.112;8.606;2023-05-10T12:07:16;24.60;83.10
10411;DHT22;5251;52.112;8.606;2023-05-10T12:09:43;24.70;84.90
10411;DHT22;5251;52.112;8.606;2023-05-10T12:12:10;24.70;82.20
10411;DHT22;5251;52.112;8.606;2023-05-10T12:14:36;24.70;82.10
10411;DHT22;5251;52.112;8.606;2023-05-10T12:17:02;24.70;83.10
10411;DHT22;5251;52.112;8.606;2023-05-10T12:19:27;24.70;80.50
10411;DHT22;5251;52.112;8.606;2023-05-10T12:21:53;24.70;82.10
10411;DHT22;5251;52.112;8.606;2023-05-10T12:24:18;24.60;79.60
10411;DHT22;5251;52.112;8.606;2023-05-10T12:26:46;24.50;80.80
10411;DHT22;5251;52.112;8.606;2023-05-10T12:29:15;24.40;81.10
10411;DHT22;5251;52.112;8.606;2023-05-10T12:31:58;24.40;82.30
10411;DHT22;5251;52.112;8.606;2023-05-10T12:34:31;24.30;80.90
10411;DHT22;5251;52.112;8.606;2023-05-10T12:36:57;24.20;81.90
10411;DHT22;5251;52.112;8.606;2023-05-10T12:39:24;24.20;83.60
10411;DHT22;5251;52.112;8.606;2023-05-10T12:41:50;24.30;84.30
10411;DHT22;5251;52.112;8.606;2023-05-10T12:44:16;24.30;84.80
10411;DHT22;5251;52.112;8.606;2023-05-10T12:46:42;24.40;84.00
10411;DHT22;5251;52.112;8.606;2023-05-10T12:49:08;24.40;83.40
10411;DHT22;5251;52.112;8.606;2023-05-10T12:51:33;24.50;84.80
10411;DHT22;5251;52.112;8.606;2023-05-10T12:53:59;24.60;84.20
10411;DHT22;5251;52.112;8.606;2023-05-10T12:56:24;24.70;83.10
10411;DHT22;5251;52.112;8.606;2023-05-10T12:58:50;24.80;82.70
10411;DHT22;5251;52.112;8.606;2023-05-10T13:01:16;24.80;82.70
10411;DHT22;5251;52.112;8.606;2023-05-10T13:03:41;24.90;81.70
10411;DHT22;5251;52.112;8.606;2023-05-10T13:06:08;24.90;82.50
10411;DHT22;5251;52.112;8.606;2023-05-10T13:08:34;24.90;82.50
10411;DHT22;5251;52.112;8.606;2023-05-10T13:11:00;24.90;82.30
10411;DHT22;5251;52.112;8.606;2023-05-10T13:13:26;24.90;83.40
10411;DHT22;5251;52.112;8.606;2023-05-10T13:15:51;25.00;81.80
10411;DHT22;5251;52.112;8.606;2023-05-10T13:18:17;25.10;82.30
10411;DHT22;5251;52.112;8.606;2023-05-10T13:20:43;25.10;82.10
10411;DHT22;5251;52.112;8.606;2023-05-10T13:23:10;25.20;82.40
10411;DHT22;5251;52.112;8.606;2023-05-10T13:25:35;25.20;82.20
10411;DHT22;5251;52.112;8.606;2023-05-10T13:28:01;25.30;81.50
10411;DHT22;5251;52.112;8.606;2023-05-10T13:30:27;25.30;81.80
10411;DHT22;5251;52.112;8.606;2023-05-10T13:32:54;25.30;81.50
10411;DHT22;5251;52.112;8.606;2023-05-10T13:35:20;25.30;83.00
10411;DHT22;5251;52.112;8.606;2023-05-10T13:37:45;25.40;80.60
10411;DHT22;5251;52.112;8.606;2023-05-10T13:40:11;25.30;79.40
10411;DHT22;5251;52.112;8.606;2023-05-10T13:42:37;25.30;77.50
10411;DHT22;5251;52.112;8.606;2023-05-10T13:45:03;25.30;79.20
10411;DHT22;5251;52.112;8.606;2023-05-10T13:47:28;25.20;79.50
10411;DHT22;5251;52.112;8.606;2023-05-10T13:49:54;25.10;78.90
10411;DHT22;5251;52.112;8.606;2023-05-10T13:52:20;25.00;79.30
10411;DHT22;5251;52.112;8.606;2023-05-10T13:54:45;24.80;80.30
10411;DHT22;5251;52.112;8.606;2023-05-10T13:57:11;24.70;81.00
10411;DHT22;5251;52.112;8.606;2023-05-10T13:59:39;24.40;81.60
10411;DHT22;5251;52.112;8.606;2023-05-10T14:02:04;24.10;83.20
10411;DHT22;5251;52.112;8.606;2023-05-10T14:04:30;23.80;87.40
10411;DHT22;5251;52.112;8.606;2023-05-10T14:06:57;23.40;87.70
10411;DHT22;5251;52.112;8.606;2023-05-10T14:09:22;23.10;89.90
10411;DHT22;5251;52.112;8.606;2023-05-10T14:11:48;22.60;90.70
10411;DHT22;5251;52.112;8.606;2023-05-10T14:14:13;22.30;91.90
10411;DHT22;5251;52.112;8.606;2023-05-10T14:16:43;22.00;92.70
10411;DHT22;5251;52.112;8.606;2023-05-10T14:19:09;21.70;93.20
10411;DHT22;5251;52.112;8.606;2023-05-10T14:21:35;21.50;93.40
10411;DHT22;5251;52.112;8.606;2023-05-10T14:24:01;21.30;94.50
10411;DHT22;5251;52.112;8.606;2023-05-10T14:26:26;21.10;94.10
10411;DHT22;5251;52.112;8.606;2023-05-10T14:28:52;21.00;94.70
10411;DHT22;5251;52.112;8.606;2023-05-10T14:31:18;20.90;95.60
10411;DHT22;5251;52.112;8.606;2023-05-10T14:33:46;20.90;95.30
10411;DHT22;5251;52.112;8.606;2023-05-10T14:36:11;20.80;95.30
10411;DHT22;5251;52.112;8.606;2023-05-10T14:38:37;20.80;95.70
10411;DHT22;5251;52.112;8.606;2023-05-10T14:41:03;20.80;95.80
10411;DHT22;5251;52.112;8.606;2023-05-10T14:43:29;20.80;95.70
10411;DHT22;5251;52.112;8.606;2023-05-10T14:45:55;20.90;95.60
10411;DHT22;5251;52.112;8.606;2023-05-10T14:48:21;20.90;95.60
10411;DHT22;5251;52.112;8.606;2023-05-10T14:50:46;20.90;95.90
10411;DHT22;5251;52.112;8.606;2023-05-10T14:53:12;21.00;95.80
10411;DHT22;5251;52.112;8.606;2023-05-10T14:55:38;21.00;95.80
10411;DHT22;5251;52.112;8.606;2023-05-10T14:58:04;21.00;95.80
10411;DHT22;5251;52.112;8.606;2023-05-10T15:00:30;21.10;95.80
10411;DHT22;5251;52.112;8.606;2023-05-10T15:02:56;21.10;96.10
10411;DHT22;5251;52.112;8.606;2023-05-10T15:05:22;21.20;96.00
10411;DHT22;5251;52.112;8.606;2023-05-10T15:07:48;21.30;96.20
10411;DHT22;5251;52.112;8.606;2023-05-10T15:10:14;21.40;96.10
10411;DHT22;5251;52.112;8.606;2023-05-10T15:12:40;21.50;96.00
10411;DHT22;5251;52.112;8.606;2023-05-10T15:15:06;21.60;96.10
10411;DHT22;5251;52.112;8.606;2023-05-10T15:17:32;21.70;96.10
10411;DHT22;5251;52.112;8.606;2023-05-10T15:19:58;21.80;96.20
10411;DHT22;5251;52.112;8.606;2023-05-10T15:22:24;21.90;96.20
10411;DHT22;5251;52.112;8.606;2023-05-10T15:24:49;22.10;96.30
10411;DHT22;5251;52.112;8.606;2023-05-10T15:27:15;22.20;96.00
10411;DHT22;5251;52.112;8.606;2023-05-10T15:29:41;22.30;95.60
10411;DHT22;5251;52.112;8.606;2023-05-10T15:32:07;22.50;95.40
10411;DHT22;5251;52.112;8.606;2023-05-10T15:34:32;22.60;95.20
10411;DHT22;5251;52.112;8.606;2023-05-10T15:36:58;22.70;94.80
10411;DHT22;5251;52.112;8.606;2023-05-10T15:39:23;22.80;94.80
10411;DHT22;5251;52.112;8.606;2023-05-10T15:41:49;22.90;94.60
10411;DHT22;5251;52.112;8.606;2023-05-10T15:44:15;22.90;94.10
10411;DHT22;5251;52.112;8.606;2023-05-10T15:46:40;22.90;93.60
10411;DHT22;5251;52.112;8.606;2023-05-10T15:49:06;23.00;93.50
10411;DHT22;5251;52.112;8.606;2023-05-10T15:51:31;22.90;93.20
10411;DHT22;5251;52.112;8.606;2023-05-10T15:53:58;22.90;93.10
10411;DHT22;5251;52.112;8.606;2023-05-10T15:56:23;22.90;92.60
10411;DHT22;5251;52.112;8.606;2023-05-10T15:58:49;22.80;92.30
10411;DHT22;5251;52.112;8.606;2023-05-10T16:01:15;22.80;92.30
10411;DHT22;5251;52.112;8.606;2023-05-10T16:03:41;22.70;92.20
10411;DHT22;5251;52.112;8.606;2023-05-10T16:06:07;22.60;92.10
10411;DHT22;5251;52.112;8.606;2023-05-10T16:08:33;22.50;92.10
10411;DHT22;5251;52.112;8.606;2023-05-10T16:10:59;22.40;92.10
10411;DHT22;5251;52.112;8.606;2023-05-10T16:13:25;22.30;92.00
10411;DHT22;5251;52.112;8.606;2023-05-10T16:15:50;22.30;92.20
10411;DHT22;5251;52.112;8.606;2023-05-10T16:18:16;22.20;92.50
10411;DHT22;5251;52.112;8.606;2023-05-10T16:20:43;22.10;92.80
10411;DHT22;5251;52.112;8.606;2023-05-10T16:23:08;22.10;92.90